Nipigon, Canada
Current Conditions -  °F | °C
As of 12:08 AM on Tuesday 21 Oct 2014 (Local Time) from CYQT Reporting Station
Scattered Clouds Scattered Clouds  
Wind Chill: 32°   Ceiling: Unl
Heat Index: 36°   Visibility: 15mi
Dew Point: 32°   Wind: 5mph
Humidity: 87%   Direction: 40°NE
Pressure: 30.17"   Gusts: NA
Location:  49.01°N, 88.26°W
Report Text: CYQT 210408Z 04004KT 15SM SCT033 02/M00 A3017 RMK SC3 SLP225
Loading
Personal Weather Stations






























Interactive Weather Map
Tropical Storm Tracking
New forecast layout! Learn more

10-Day Weather Forecast

Advertisements
Track Severe Weather on mobile